Darstellungsparameter: Aktuell verwendete Einstellungen:
Skalierung der Graphiken ... ?
xyx+y,   Skalierungsfaktor:      Skalierung: Modus: x, Faktor: 1
Darstellungszeitraum ... ?
Vom - - bis: - -   Zeitraum: 11.04.2019 - 13.04.2019
Min/Max/Avg-Anzeige ... ?
Zeige MMA aktuell
Zeige MMA Monat
Zeige MMA alles
Zeige --A aktuell
Zeige --A Monat
Zeige --A alles
Keine MMA-Anzeige
MMA:
Average (ber die Originaldaten)
MMA-Basis: 11.04.2019 - 13.04.2019
Quicknavigation für Darstellung... ?
Tage:      1T, 2T, 3T, 5T -1T -2T -3T -5T +1T +2T +3T +5T
Wochen: 1W, 2W, 3W -1W -2W -3W +1W +2W +3W
Monate: 1M, 3M, 6M -1M -3M -6M +1M +3M +6M
Jahre:    1J, 3J, 5J, 10J -1J -3J -5J -10J +1J +3J +5J +10J
Nutze für die Darstellung ... ?
Originaldaten oder Mittelwerte auf ...
Stundenbasis Tagesbasis Wochenbasis
Monatsbasis Jahresbasis      Datenbasis: Original-Daten
Darstellen als:
Statistik (Auto) Statistik J:M      Darstellung:
Zur Graphik,    zurück zur Übersicht aller Sensoren.
 
Tabellarische Datenbersicht: ?
 
Sensor: Nr:Datum:Temp:Abs-Feuchte:Windchill:Wind:
Aussen-T/F 1 11-04-2019 00:00:00 6.1 C 5.63 g/m*3 6.1 C 0 km/h
2 11-04-2019 00:05:00 6 C 5.59 g/m*3 6 C 0 km/h
3 11-04-2019 00:10:00 5.9 C 5.55 g/m*3 5.9 C 0 km/h
4 11-04-2019 00:15:00 5.9 C 5.55 g/m*3 5.9 C 0 km/h
5 11-04-2019 00:20:00 5.8 C 5.52 g/m*3 5.8 C 0 km/h
6 11-04-2019 00:25:00 5.7 C 5.55 g/m*3 5.7 C 0 km/h
7 11-04-2019 00:30:00 5.7 C 5.48 g/m*3 5.7 C 3.2 km/h
8 11-04-2019 00:35:00 5.6 C 5.51 g/m*3 5.6 C 0 km/h
9 11-04-2019 00:40:00 5.6 C 5.44 g/m*3 3.11 C 11.3 km/h
10 11-04-2019 00:45:00 5.6 C 5.51 g/m*3 5.6 C 0 km/h
11 11-04-2019 00:50:00 5.6 C 5.51 g/m*3 5.6 C 1.6 km/h
12 11-04-2019 00:55:00 5.5 C 5.41 g/m*3 5.5 C 0 km/h
13 11-04-2019 01:00:00 5.4 C 5.37 g/m*3 5.4 C 0 km/h
14 11-04-2019 01:05:00 5.3 C 5.34 g/m*3 5.3 C 0 km/h
15 11-04-2019 01:10:00 5.2 C 5.3 g/m*3 5.2 C 0 km/h
16 11-04-2019 01:15:00 5.2 C 5.37 g/m*3 5.2 C 0 km/h
17 11-04-2019 01:20:00 5.1 C 5.34 g/m*3 5.1 C 0 km/h
18 11-04-2019 01:25:00 5.1 C 5.34 g/m*3 5.1 C 0 km/h
19 11-04-2019 01:30:00 4.9 C 5.33 g/m*3 4.9 C 0 km/h
20 11-04-2019 01:35:00 4.9 C 5.33 g/m*3 4.9 C 1.6 km/h
21 11-04-2019 01:40:00 4.9 C 5.27 g/m*3 4.9 C 1.6 km/h
22 11-04-2019 01:45:00 4.8 C 5.23 g/m*3 4.8 C 1.6 km/h
23 11-04-2019 01:50:00 4.8 C 5.23 g/m*3 4.8 C 0 km/h
24 11-04-2019 01:55:00 4.8 C 5.23 g/m*3 4.8 C 1.6 km/h
25 11-04-2019 02:00:00 4.7 C 5.2 g/m*3 4.7 C 3.2 km/h
Sensor: Nr:Datum:Temp:Abs-Feuchte:Windchill:Wind:
Aussen-T/F 26 11-04-2019 02:05:00 4.7 C 5.26 g/m*3 4.7 C 0 km/h
27 11-04-2019 02:10:00 4.6 C 5.16 g/m*3 4.6 C 3.2 km/h
28 11-04-2019 02:15:00 4.6 C 5.16 g/m*3 4.6 C 0 km/h
29 11-04-2019 02:20:00 4.4 C 5.16 g/m*3 4.4 C 3.2 km/h
30 11-04-2019 02:25:00 4.4 C 5.16 g/m*3 4.4 C 1.6 km/h
31 11-04-2019 02:30:00 4.3 C 5.12 g/m*3 4.3 C 0 km/h
32 11-04-2019 02:35:00 4.3 C 5.12 g/m*3 4.3 C 0 km/h
33 11-04-2019 02:40:00 4.3 C 5.12 g/m*3 4.3 C 3.2 km/h
34 11-04-2019 02:45:00 4.2 C 5.09 g/m*3 4.2 C 0 km/h
35 11-04-2019 02:50:00 4.2 C 5.09 g/m*3 4.2 C 0 km/h
36 11-04-2019 02:55:00 4.1 C 5.12 g/m*3 4.1 C 0 km/h
37 11-04-2019 03:00:00 4.1 C 5.06 g/m*3 4.1 C 0 km/h
38 11-04-2019 03:05:00 4.1 C 5.06 g/m*3 4.1 C 0 km/h
39 11-04-2019 03:10:00 4.1 C 5.06 g/m*3 4.1 C 0 km/h
40 11-04-2019 03:15:00 4.1 C 5.06 g/m*3 4.1 C 0 km/h
41 11-04-2019 03:20:00 4 C 5.02 g/m*3 4 C 0 km/h
42 11-04-2019 03:25:00 3.9 C 4.99 g/m*3 3.9 C 0 km/h
43 11-04-2019 03:30:00 3.9 C 4.99 g/m*3 3.9 C 0 km/h
44 11-04-2019 03:35:00 3.8 C 4.96 g/m*3 3.8 C 0 km/h
45 11-04-2019 03:40:00 3.8 C 4.96 g/m*3 3.8 C 0 km/h
46 11-04-2019 03:45:00 3.6 C 4.89 g/m*3 3.6 C 0 km/h
47 11-04-2019 03:50:00 3.5 C 4.86 g/m*3 3.5 C 0 km/h
48 11-04-2019 03:55:00 3.4 C 4.89 g/m*3 3.4 C 0 km/h
49 11-04-2019 04:00:00 3.3 C 4.85 g/m*3 3.3 C 0 km/h
50 11-04-2019 04:05:00 3.3 C 4.85 g/m*3 3.3 C 0 km/h
Sensor: Nr:Datum:Temp:Abs-Feuchte:Windchill:Wind:
Aussen-T/F 51 11-04-2019 04:10:00 3.2 C 4.82 g/m*3 3.2 C 0 km/h
52 11-04-2019 04:15:00 3.1 C 4.79 g/m*3 3.1 C 0 km/h
53 11-04-2019 04:20:00 2.9 C 4.72 g/m*3 2.9 C 0 km/h
54 11-04-2019 04:25:00 2.8 C 4.75 g/m*3 2.8 C 0 km/h
55 11-04-2019 04:30:00 2.8 C 4.75 g/m*3 2.8 C 0 km/h
56 11-04-2019 04:35:00 2.7 C 4.72 g/m*3 2.7 C 0 km/h
57 11-04-2019 04:40:00 2.7 C 4.72 g/m*3 2.7 C 0 km/h
58 11-04-2019 04:45:00 2.7 C 4.72 g/m*3 2.7 C 0 km/h
59 11-04-2019 04:50:00 2.7 C 4.72 g/m*3 2.7 C 0 km/h
60 11-04-2019 04:55:00 2.6 C 4.69 g/m*3 2.6 C 0 km/h
61 11-04-2019 05:00:00 2.6 C 4.69 g/m*3 2.6 C 0 km/h
62 11-04-2019 05:05:00 2.5 C 4.66 g/m*3 2.5 C 0 km/h
63 11-04-2019 05:10:00 2.4 C 4.62 g/m*3 2.4 C 0 km/h
64 11-04-2019 05:15:00 2.4 C 4.68 g/m*3 2.4 C 0 km/h
65 11-04-2019 05:20:00 2.3 C 4.65 g/m*3 2.3 C 0 km/h
66 11-04-2019 05:25:00 2.3 C 4.65 g/m*3 2.3 C 0 km/h
67 11-04-2019 05:30:00 2.3 C 4.65 g/m*3 2.3 C 0 km/h
68 11-04-2019 05:35:00 2.3 C 4.65 g/m*3 2.3 C 3.2 km/h
69 11-04-2019 05:40:00 2.2 C 4.62 g/m*3 2.2 C 0 km/h
70 11-04-2019 05:45:00 2.2 C 4.62 g/m*3 2.2 C 0 km/h
71 11-04-2019 05:50:00 2.1 C 4.59 g/m*3 2.1 C 0 km/h
72 11-04-2019 05:55:00 2.1 C 4.59 g/m*3 2.1 C 0 km/h
73 11-04-2019 06:00:00 2 C 4.56 g/m*3 2 C 0 km/h
74 11-04-2019 06:05:00 2 C 4.56 g/m*3 2 C 0 km/h
75 11-04-2019 06:10:00 1.9 C 4.58 g/m*3 1.9 C 0 km/h
Sensor: Nr:Datum:Temp:Abs-Feuchte:Windchill:Wind:
Aussen-T/F 76 11-04-2019 06:15:00 1.8 C 4.55 g/m*3 1.8 C 0 km/h
77 11-04-2019 06:20:00 1.8 C 4.55 g/m*3 1.8 C 0 km/h
78 11-04-2019 06:25:00 1.7 C 4.52 g/m*3 1.7 C 0 km/h
79 11-04-2019 06:30:00 1.6 C 4.54 g/m*3 1.6 C 0 km/h
80 11-04-2019 06:35:00 1.6 C 4.54 g/m*3 1.6 C 0 km/h
81 11-04-2019 06:40:00 1.6 C 4.54 g/m*3 1.6 C 0 km/h
82 11-04-2019 06:45:00 1.6 C 4.54 g/m*3 1.6 C 0 km/h
83 11-04-2019 06:50:00 1.5 C 4.51 g/m*3 1.5 C 0 km/h
84 11-04-2019 06:55:00 1.5 C 4.51 g/m*3 1.5 C 0 km/h
85 11-04-2019 07:00:00 1.4 C 4.48 g/m*3 1.4 C 0 km/h
86 11-04-2019 07:05:00 1.3 C 4.45 g/m*3 1.3 C 0 km/h
87 11-04-2019 07:10:00 1.3 C 4.45 g/m*3 1.3 C 0 km/h
88 11-04-2019 07:15:00 1.2 C 4.47 g/m*3 1.2 C 0 km/h
89 11-04-2019 07:20:00 1.2 C 4.47 g/m*3 1.2 C 0 km/h
90 11-04-2019 07:25:00 1.2 C 4.47 g/m*3 1.2 C 0 km/h
91 11-04-2019 07:30:00 1.2 C 4.53 g/m*3 1.2 C 0 km/h
92 11-04-2019 07:35:00 1.1 C 4.49 g/m*3 1.1 C 0 km/h
93 11-04-2019 07:40:00 1.1 C 4.49 g/m*3 1.1 C 0 km/h
94 11-04-2019 07:45:00 1.2 C 4.53 g/m*3 1.2 C 0 km/h
95 11-04-2019 07:50:00 1.2 C 4.53 g/m*3 1.2 C 0 km/h
96 11-04-2019 07:55:00 1.2 C 4.53 g/m*3 1.2 C 0 km/h
97 11-04-2019 08:00:00 1.3 C 4.56 g/m*3 1.3 C 0 km/h
98 11-04-2019 08:05:00 1.4 C 4.59 g/m*3 1.4 C 0 km/h
99 11-04-2019 08:10:00 1.5 C 4.62 g/m*3 1.5 C 0 km/h
100 11-04-2019 08:15:00 1.6 C 4.65 g/m*3 1.6 C 0 km/h
Sensor: Nr:Datum:Temp:Abs-Feuchte:Windchill:Wind:
Aussen-T/F 101 11-04-2019 08:20:00 1.7 C 4.68 g/m*3 1.7 C 0 km/h
102 11-04-2019 08:25:00 1.8 C 4.66 g/m*3 1.8 C 0 km/h
103 11-04-2019 08:30:00 1.8 C 4.66 g/m*3 1.8 C 0 km/h
104 11-04-2019 08:35:00 1.9 C 4.69 g/m*3 1.9 C 0 km/h
105 11-04-2019 08:40:00 2 C 4.78 g/m*3 2 C 0 km/h
106 11-04-2019 08:45:00 2.1 C 4.76 g/m*3 2.1 C 0 km/h
107 11-04-2019 08:50:00 2.2 C 4.79 g/m*3 2.2 C 0 km/h
108 11-04-2019 08:55:00 2.3 C 4.82 g/m*3 2.3 C 0 km/h
109 11-04-2019 09:00:00 2.4 C 4.85 g/m*3 2.4 C 0 km/h
110 11-04-2019 09:05:00 2.6 C 4.92 g/m*3 2.6 C 0 km/h
111 11-04-2019 09:10:00 2.8 C 4.99 g/m*3 2.8 C 1.6 km/h
112 11-04-2019 09:15:00 3 C 4.93 g/m*3 3 C 0 km/h
113 11-04-2019 09:20:00 3.3 C 4.85 g/m*3 1.63 C 6.4 km/h
114 11-04-2019 09:25:00 3.8 C 4.83 g/m*3 2.21 C 6.4 km/h
115 11-04-2019 09:30:00 4.2 C 4.83 g/m*3 2.67 C 6.4 km/h
116 11-04-2019 09:35:00 4.5 C 4.86 g/m*3 2.52 C 8.1 km/h
117 11-04-2019 09:40:00 4.7 C 4.93 g/m*3 4.7 C 1.6 km/h
118 11-04-2019 09:45:00 4.9 C 4.93 g/m*3 2.61 C 9.7 km/h
119 11-04-2019 09:50:00 5.2 C 4.61 g/m*3 2.63 C 11.3 km/h
120 11-04-2019 09:55:00 5.4 C 5.02 g/m*3 5.4 C 4.8 km/h
121 11-04-2019 10:00:00 5.6 C 4.74 g/m*3 3.81 C 8.1 km/h
122 11-04-2019 10:05:00 5.8 C 4.58 g/m*3 3.36 C 11.3 km/h
123 11-04-2019 10:10:00 6.2 C 4.41 g/m*3 3.84 C 11.3 km/h
124 11-04-2019 10:15:00 6.3 C 4.81 g/m*3 4.64 C 8.1 km/h
125 11-04-2019 10:20:00 6.4 C 4.4 g/m*3 2.91 C 19.3 km/h
Sensor: Nr:Datum:Temp:Abs-Feuchte:Windchill:Wind:
Aussen-T/F 126 11-04-2019 10:25:00 6.8 C 4.36 g/m*3 3.42 C 19.3 km/h
127 11-04-2019 10:30:00 7 C 4.34 g/m*3 3.49 C 20.9 km/h
128 11-04-2019 10:35:00 7.1 C 4.37 g/m*3 3.62 C 20.9 km/h
129 11-04-2019 10:40:00 7.3 C 4.27 g/m*3 5.47 C 9.7 km/h
130 11-04-2019 10:45:00 7.4 C 4.21 g/m*3 4.17 C 19.3 km/h
131 11-04-2019 10:50:00 7.6 C 4.27 g/m*3 4.42 C 19.3 km/h
132 11-04-2019 10:55:00 7.7 C 4.22 g/m*3 5.38 C 12.9 km/h
133 11-04-2019 11:00:00 7.8 C 4.33 g/m*3 5.06 C 16.1 km/h
134 11-04-2019 11:05:00 7.8 C 4.08 g/m*3 5.27 C 14.5 km/h
135 11-04-2019 11:10:00 7.8 C 4.16 g/m*3 4.86 C 17.7 km/h
136 11-04-2019 11:15:00 7.9 C 4.11 g/m*3 4.8 C 19.3 km/h
137 11-04-2019 11:20:00 7.9 C 4.11 g/m*3 5.63 C 12.9 km/h
138 11-04-2019 11:25:00 8.1 C 4.33 g/m*3 5.64 C 14.5 km/h
139 11-04-2019 11:30:00 8.2 C 4.27 g/m*3 5.55 C 16.1 km/h
140 11-04-2019 11:35:00 8.4 C 4.16 g/m*3 5.61 C 17.7 km/h
141 11-04-2019 11:40:00 8.4 C 4.07 g/m*3 5.27 C 20.9 km/h
142 11-04-2019 11:45:00 8.3 C 3.96 g/m*3 4.56 C 27.4 km/h
143 11-04-2019 11:50:00 8.3 C 3.96 g/m*3 4.84 C 24.1 km/h
144 11-04-2019 11:55:00 8.3 C 4.13 g/m*3 6.37 C 11.3 km/h
145 11-04-2019 12:00:00 8.4 C 3.99 g/m*3 6.24 C 12.9 km/h
146 11-04-2019 12:05:00 8.5 C 4.1 g/m*3 6.9 C 9.7 km/h
147 11-04-2019 12:10:00 8.7 C 4.15 g/m*3 6.17 C 16.1 km/h
148 11-04-2019 12:15:00 8.7 C 4.15 g/m*3 6.38 C 14.5 km/h
149 11-04-2019 12:20:00 8.9 C 4.2 g/m*3 6.42 C 16.1 km/h
150 11-04-2019 12:25:00 9 C 4.14 g/m*3 6.36 C 17.7 km/h
Sensor: Nr:Datum:Temp:Abs-Feuchte:Windchill:Wind:
Aussen-T/F 151 11-04-2019 12:30:00 9 C 4.06 g/m*3 6.36 C 17.7 km/h
152 11-04-2019 12:35:00 9 C 3.88 g/m*3 6.36 C 17.7 km/h
153 11-04-2019 12:40:00 9.1 C 3.9 g/m*3 6.31 C 19.3 km/h
154 11-04-2019 12:45:00 9.2 C 3.93 g/m*3 5.99 C 24.1 km/h
155 11-04-2019 12:50:00 9.2 C 3.93 g/m*3 7.46 C 11.3 km/h
156 11-04-2019 12:55:00 9.3 C 3.86 g/m*3 6.56 C 19.3 km/h
157 11-04-2019 13:00:00 9.3 C 3.86 g/m*3 6.92 C 16.1 km/h
158 11-04-2019 13:05:00 9.4 C 3.89 g/m*3 7.24 C 14.5 km/h
159 11-04-2019 13:10:00 9.6 C 4.03 g/m*3 7.11 C 17.7 km/h
160 11-04-2019 13:15:00 9.6 C 4.03 g/m*3 6.94 C 19.3 km/h
161 11-04-2019 13:20:00 9.7 C 4.06 g/m*3 7.82 C 12.9 km/h
162 11-04-2019 13:25:00 9.8 C 4.08 g/m*3 8.18 C 11.3 km/h
163 11-04-2019 13:30:00 9.9 C 4.11 g/m*3 8.56 C 9.7 km/h
164 11-04-2019 13:35:00 10.1 C 4.07 g/m*3 7.91 C 16.1 km/h
165 11-04-2019 13:40:00 10.2 C 4.09 g/m*3 8.03 C 16.1 km/h
166 11-04-2019 13:45:00 10.2 C 4.09 g/m*3 8.66 C 11.3 km/h
167 11-04-2019 13:50:00 10.3 C 4.12 g/m*3 9.34 C 8.1 km/h
168 11-04-2019 13:55:00 10.4 C 4.14 g/m*3 8.11 C 17.7 km/h
169 11-04-2019 14:00:00 10.4 C 4.05 g/m*3 8.47 C 14.5 km/h
170 11-04-2019 14:05:00 10.6 C 4.2 g/m*3 8.36 C 17.7 km/h
171 11-04-2019 14:10:00 10.7 C 4.03 g/m*3 8.65 C 16.1 km/h
172 11-04-2019 14:15:00 10.8 C 4.05 g/m*3 8.96 C 14.5 km/h
173 11-04-2019 14:20:00 10.8 C 3.95 g/m*3 8.17 C 22.5 km/h
174 11-04-2019 14:25:00 10.9 C 4.08 g/m*3 8.73 C 17.7 km/h
175 11-04-2019 14:30:00 10.9 C 4.08 g/m*3 9.08 C 14.5 km/h
Sensor: Nr:Datum:Temp:Abs-Feuchte:Windchill:Wind:
Aussen-T/F 176 11-04-2019 14:35:00 11.1 C 4.23 g/m*3 11.1 C 8.1 km/h
177 11-04-2019 14:40:00 11.3 C 3.98 g/m*3 11.3 C 20.9 km/h
178 11-04-2019 14:45:00 11.4 C 4.11 g/m*3 11.4 C 12.9 km/h
179 11-04-2019 14:50:00 11.6 C 4.26 g/m*3 11.6 C 20.9 km/h
180 11-04-2019 14:55:00 11.7 C 4.08 g/m*3 11.7 C 17.7 km/h
181 11-04-2019 15:00:00 11.8 C 4.1 g/m*3 11.8 C 17.7 km/h
182 11-04-2019 15:05:00 11.8 C 4.1 g/m*3 11.8 C 17.7 km/h
183 11-04-2019 15:10:00 11.9 C 4.24 g/m*3 11.9 C 19.3 km/h
184 11-04-2019 15:15:00 11.8 C 4.1 g/m*3 11.8 C 17.7 km/h
185 11-04-2019 15:20:00 11.9 C 4.02 g/m*3 11.9 C 16.1 km/h
186 11-04-2019 15:25:00 11.9 C 4.13 g/m*3 11.9 C 14.5 km/h
187 11-04-2019 15:30:00 11.9 C 4.24 g/m*3 11.9 C 14.5 km/h
188 11-04-2019 15:35:00 12.1 C 4.18 g/m*3 12.1 C 20.9 km/h
189 11-04-2019 15:40:00 12.2 C 4.21 g/m*3 12.2 C 16.1 km/h
190 11-04-2019 15:45:00 12.2 C 4.1 g/m*3 12.2 C 27.4 km/h
191 11-04-2019 15:50:00 12.2 C 4.1 g/m*3 12.2 C 12.9 km/h
192 11-04-2019 15:55:00 12.3 C 4.02 g/m*3 12.3 C 11.3 km/h
193 11-04-2019 16:00:00 12.4 C 4.04 g/m*3 12.4 C 20.9 km/h
194 11-04-2019 16:05:00 12.6 C 4.09 g/m*3 12.6 C 12.9 km/h
195 11-04-2019 16:10:00 12.6 C 4.09 g/m*3 12.6 C 16.1 km/h
196 11-04-2019 16:15:00 12.6 C 3.98 g/m*3 12.6 C 16.1 km/h
197 11-04-2019 16:20:00 12.6 C 4.09 g/m*3 12.6 C 16.1 km/h
198 11-04-2019 16:25:00 12.6 C 3.98 g/m*3 12.6 C 22.5 km/h
199 11-04-2019 16:30:00 12.6 C 4.09 g/m*3 12.6 C 14.5 km/h
200 11-04-2019 16:35:00 12.9 C 4.17 g/m*3 12.9 C 14.5 km/h
Sensor: Nr:Datum:Temp:Abs-Feuchte:Windchill:Wind:
Aussen-T/F 201 11-04-2019 16:40:00 12.9 C 3.94 g/m*3 12.9 C 16.1 km/h
202 11-04-2019 16:45:00 13.1 C 3.99 g/m*3 13.1 C 16.1 km/h
203 11-04-2019 16:50:00 13.2 C 4.02 g/m*3 13.2 C 16.1 km/h
204 11-04-2019 16:55:00 13.1 C 3.99 g/m*3 13.1 C 14.5 km/h
205 11-04-2019 17:00:00 13.1 C 4.11 g/m*3 13.1 C 12.9 km/h
206 11-04-2019 17:05:00 13.3 C 4.04 g/m*3 13.3 C 19.3 km/h
207 11-04-2019 17:10:00 13.3 C 3.93 g/m*3 13.3 C 14.5 km/h
208 11-04-2019 17:15:00 13.3 C 4.04 g/m*3 13.3 C 19.3 km/h
209 11-04-2019 17:20:00 13.2 C 3.9 g/m*3 13.2 C 16.1 km/h
210 11-04-2019 17:25:00 13.3 C 4.04 g/m*3 13.3 C 12.9 km/h
211 11-04-2019 17:30:00 13.4 C 4.07 g/m*3 13.4 C 14.5 km/h
212 11-04-2019 17:35:00 13.5 C 3.98 g/m*3 13.5 C 9.7 km/h
213 11-04-2019 17:40:00 13.4 C 4.07 g/m*3 13.4 C 12.9 km/h
214 11-04-2019 17:45:00 13.6 C 4.12 g/m*3 13.6 C 14.5 km/h
215 11-04-2019 17:50:00 13.2 C 3.9 g/m*3 13.2 C 16.1 km/h
216 11-04-2019 17:55:00 13.2 C 4.02 g/m*3 13.2 C 14.5 km/h
217 11-04-2019 18:00:00 13.4 C 4.07 g/m*3 13.4 C 9.7 km/h
218 11-04-2019 18:05:00 13.3 C 3.93 g/m*3 13.3 C 9.7 km/h
219 11-04-2019 18:10:00 13.3 C 3.93 g/m*3 13.3 C 17.7 km/h
220 11-04-2019 18:15:00 13 C 3.97 g/m*3 13 C 14.5 km/h
221 11-04-2019 18:20:00 13.1 C 3.99 g/m*3 13.1 C 12.9 km/h
222 11-04-2019 18:25:00 12.8 C 3.92 g/m*3 12.8 C 12.9 km/h
223 11-04-2019 18:30:00 12.7 C 3.9 g/m*3 12.7 C 16.1 km/h
224 11-04-2019 18:35:00 12.7 C 4.01 g/m*3 12.7 C 12.9 km/h
225 11-04-2019 18:40:00 12.8 C 4.03 g/m*3 12.8 C 6.4 km/h
Sensor: Nr:Datum:Temp:Abs-Feuchte:Windchill:Wind:
Aussen-T/F 226 11-04-2019 18:45:00 13.1 C 4.11 g/m*3 13.1 C 4.8 km/h
227 11-04-2019 18:50:00 13.1 C 3.99 g/m*3 13.1 C 11.3 km/h
228 11-04-2019 18:55:00 13 C 4.08 g/m*3 13 C 8.1 km/h
229 11-04-2019 19:00:00 12.9 C 3.94 g/m*3 12.9 C 9.7 km/h
230 11-04-2019 19:05:00 12.7 C 4.01 g/m*3 12.7 C 12.9 km/h
231 11-04-2019 19:10:00 12.6 C 3.98 g/m*3 12.6 C 4.8 km/h
232 11-04-2019 19:15:00 12.6 C 4.09 g/m*3 12.6 C 9.7 km/h
233 11-04-2019 19:20:00 12.3 C 3.91 g/m*3 12.3 C 9.7 km/h
234 11-04-2019 19:25:00 12.1 C 4.18 g/m*3 12.1 C 11.3 km/h
235 11-04-2019 19:30:00 11.8 C 4 g/m*3 11.8 C 8.1 km/h
236 11-04-2019 19:35:00 11.7 C 3.97 g/m*3 11.7 C 6.4 km/h
237 11-04-2019 19:40:00 11.5 C 4.34 g/m*3 11.5 C 3.2 km/h
238 11-04-2019 19:45:00 11.3 C 3.98 g/m*3 11.3 C 8.1 km/h
239 11-04-2019 19:50:00 11.1 C 4.13 g/m*3 11.1 C 4.8 km/h
240 11-04-2019 19:55:00 10.9 C 4.08 g/m*3 10.9 C 3.2 km/h
241 11-04-2019 20:00:00 10.7 C 4.03 g/m*3 10.7 C 3.2 km/h
242 11-04-2019 20:05:00 10.5 C 4.07 g/m*3 10.5 C 3.2 km/h
243 11-04-2019 20:10:00 10.2 C 4.09 g/m*3 10.2 C 3.2 km/h
244 11-04-2019 20:15:00 9.9 C 4.2 g/m*3 9.9 C 1.6 km/h
245 11-04-2019 20:20:00 9.6 C 4.31 g/m*3 9.6 C 0 km/h
246 11-04-2019 20:25:00 9.2 C 4.29 g/m*3 9.2 C 1.6 km/h
247 11-04-2019 20:30:00 8.8 C 4.44 g/m*3 8.8 C 1.6 km/h
248 11-04-2019 20:35:00 8.3 C 4.38 g/m*3 8.3 C 3.2 km/h
249 11-04-2019 20:40:00 7.9 C 4.52 g/m*3 7.9 C 3.2 km/h
250 11-04-2019 20:45:00 7.7 C 4.54 g/m*3 7.7 C 3.2 km/h
Sensor: Nr:Datum:Temp:Abs-Feuchte:Windchill:Wind:
Aussen-T/F 251 11-04-2019 20:50:00 7.4 C 4.53 g/m*3 7.4 C 3.2 km/h
252 11-04-2019 20:55:00 7.2 C 4.63 g/m*3 7.2 C 1.6 km/h
253 11-04-2019 21:00:00 7 C 4.65 g/m*3 7 C 0 km/h
254 11-04-2019 21:05:00 6.8 C 4.59 g/m*3 6.8 C 0 km/h
255 11-04-2019 21:10:00 6.6 C 4.6 g/m*3 6.6 C 3.2 km/h
256 11-04-2019 21:15:00 6.5 C 4.57 g/m*3 6.5 C 3.2 km/h
257 11-04-2019 21:20:00 6.3 C 4.52 g/m*3 6.3 C 3.2 km/h
258 11-04-2019 21:25:00 6.2 C 4.49 g/m*3 6.2 C 4.8 km/h
259 11-04-2019 21:30:00 6.1 C 4.53 g/m*3 6.1 C 4.8 km/h
260 11-04-2019 21:35:00 6 C 4.5 g/m*3 6 C 0 km/h
261 11-04-2019 21:40:00 5.9 C 4.47 g/m*3 5.9 C 3.2 km/h
262 11-04-2019 21:45:00 5.8 C 4.44 g/m*3 5.8 C 3.2 km/h
263 11-04-2019 21:50:00 5.8 C 4.44 g/m*3 5.8 C 1.6 km/h
264 11-04-2019 21:55:00 5.7 C 4.48 g/m*3 5.7 C 0 km/h
265 11-04-2019 22:00:00 5.7 C 4.48 g/m*3 5.7 C 0 km/h
266 11-04-2019 22:05:00 5.6 C 4.45 g/m*3 5.6 C 0 km/h
267 11-04-2019 22:10:00 5.6 C 4.45 g/m*3 5.6 C 3.2 km/h
268 11-04-2019 22:15:00 5.4 C 4.4 g/m*3 5.4 C 3.2 km/h
269 11-04-2019 22:20:00 5.4 C 4.47 g/m*3 5.4 C 1.6 km/h
270 11-04-2019 22:25:00 5.3 C 4.44 g/m*3 5.3 C 3.2 km/h
271 11-04-2019 22:30:00 5.3 C 4.51 g/m*3 5.3 C 3.2 km/h
272 11-04-2019 22:35:00 5.2 C 4.41 g/m*3 5.2 C 4.8 km/h
273 11-04-2019 22:40:00 5.2 C 4.48 g/m*3 5.2 C 1.6 km/h
274 11-04-2019 22:45:00 5.1 C 4.58 g/m*3 5.1 C 0 km/h
275 11-04-2019 22:50:00 5.1 C 4.51 g/m*3 5.1 C 3.2 km/h
Sensor: Nr:Datum:Temp:Abs-Feuchte:Windchill:Wind:
Aussen-T/F 276 11-04-2019 22:55:00 5.3 C 4.23 g/m*3 3.08 C 9.7 km/h
277 11-04-2019 23:00:00 5.6 C 4.24 g/m*3 3.11 C 11.3 km/h
278 11-04-2019 23:05:00 5.8 C 4.23 g/m*3 5.8 C 3.2 km/h
279 11-04-2019 23:10:00 5.8 C 4.37 g/m*3 5.8 C 1.6 km/h
280 11-04-2019 23:15:00 5.7 C 4.41 g/m*3 5.7 C 0 km/h
281 11-04-2019 23:20:00 5.8 C 4.08 g/m*3 3.68 C 9.7 km/h
282 11-04-2019 23:25:00 5.9 C 4.25 g/m*3 5.9 C 4.8 km/h
283 11-04-2019 23:30:00 5.8 C 4.37 g/m*3 5.8 C 1.6 km/h
284 11-04-2019 23:35:00 5.4 C 4.4 g/m*3 5.4 C 0 km/h
285 11-04-2019 23:40:00 5.2 C 4.2 g/m*3 3.82 C 6.4 km/h
286 11-04-2019 23:45:00 5.1 C 4.17 g/m*3 5.1 C 3.2 km/h
287 11-04-2019 23:50:00 4.9 C 4.19 g/m*3 4.9 C 1.6 km/h
288 11-04-2019 23:55:00 4.8 C 4.22 g/m*3 4.8 C 1.6 km/h
289 12-04-2019 00:00:00 4.7 C 4.33 g/m*3 4.7 C 3.2 km/h
290 12-04-2019 00:05:00 4.5 C 4.27 g/m*3 4.5 C 3.2 km/h
291 12-04-2019 00:10:00 4.4 C 4.18 g/m*3 4.4 C 3.2 km/h
292 12-04-2019 00:15:00 4.3 C 4.15 g/m*3 2.78 C 6.4 km/h
293 12-04-2019 00:20:00 4.4 C 4.05 g/m*3 4.4 C 4.8 km/h
294 12-04-2019 00:25:00 4.4 C 4.18 g/m*3 2.9 C 6.4 km/h
295 12-04-2019 00:30:00 4.4 C 4.11 g/m*3 2.9 C 6.4 km/h
296 12-04-2019 00:35:00 4.5 C 4.08 g/m*3 2.13 C 9.7 km/h
297 12-04-2019 00:40:00 4.6 C 4.04 g/m*3 4.6 C 3.2 km/h
298 12-04-2019 00:45:00 4.6 C 3.97 g/m*3 3.13 C 6.4 km/h
299 12-04-2019 00:50:00 4.4 C 3.98 g/m*3 4.4 C 3.2 km/h
300 12-04-2019 00:55:00 4.4 C 4.05 g/m*3 2.4 C 8.1 km/h
Sensor: Nr:Datum:Temp:Abs-Feuchte:Windchill:Wind:
Aussen-T/F 301 12-04-2019 01:00:00 4.3 C 4.02 g/m*3 4.3 C 1.6 km/h
302 12-04-2019 01:05:00 4.2 C 3.93 g/m*3 4.2 C 4.8 km/h
303 12-04-2019 01:10:00 4.1 C 3.97 g/m*3 4.1 C 4.8 km/h
304 12-04-2019 01:15:00 4 C 4.01 g/m*3 4 C 1.6 km/h
305 12-04-2019 01:20:00 3.8 C 4.02 g/m*3 3.8 C 3.2 km/h
306 12-04-2019 01:25:00 3.6 C 4.02 g/m*3 3.6 C 3.2 km/h
307 12-04-2019 01:30:00 3.3 C 4.06 g/m*3 3.3 C 1.6 km/h
308 12-04-2019 01:35:00 3.1 C 4.01 g/m*3 3.1 C 4.8 km/h
309 12-04-2019 01:40:00 3 C 3.98 g/m*3 3 C 1.6 km/h
310 12-04-2019 01:45:00 3.1 C 4.07 g/m*3 0.87 C 8.1 km/h
311 12-04-2019 01:50:00 3.1 C 4.13 g/m*3 3.1 C 1.6 km/h
312 12-04-2019 01:55:00 2.9 C 4.07 g/m*3 2.9 C 3.2 km/h
313 12-04-2019 02:00:00 2.8 C 4.11 g/m*3 2.8 C 4.8 km/h
314 12-04-2019 02:05:00 2.6 C 4.05 g/m*3 2.6 C 3.2 km/h
315 12-04-2019 02:10:00 2.4 C 4.05 g/m*3 2.4 C 3.2 km/h
316 12-04-2019 02:15:00 2.3 C 4.03 g/m*3 2.3 C 3.2 km/h
317 12-04-2019 02:20:00 2.3 C 4.03 g/m*3 2.3 C 1.6 km/h
318 12-04-2019 02:25:00 2.2 C 4.06 g/m*3 2.2 C 0 km/h
319 12-04-2019 02:30:00 2.1 C 4.08 g/m*3 2.1 C 0 km/h
320 12-04-2019 02:35:00 2 C 4 g/m*3 2 C 0 km/h
321 12-04-2019 02:40:00 1.9 C 3.97 g/m*3 1.9 C 3.2 km/h
322 12-04-2019 02:45:00 1.8 C 3.95 g/m*3 1.8 C 3.2 km/h
323 12-04-2019 02:50:00 1.8 C 4 g/m*3 1.8 C 4.8 km/h
324 12-04-2019 02:55:00 1.7 C 3.97 g/m*3 1.7 C 3.2 km/h
325 12-04-2019 03:00:00 1.7 C 3.92 g/m*3 1.7 C 4.8 km/h
Sensor: Nr:Datum:Temp:Abs-Feuchte:Windchill:Wind:
Aussen-T/F 326 12-04-2019 03:05:00 1.6 C 3.95 g/m*3 1.6 C 3.2 km/h
327 12-04-2019 03:10:00 1.6 C 3.95 g/m*3 1.6 C 4.8 km/h
328 12-04-2019 03:15:00 1.6 C 3.95 g/m*3 1.6 C 3.2 km/h
329 12-04-2019 03:20:00 1.6 C 3.95 g/m*3 1.6 C 4.8 km/h
330 12-04-2019 03:25:00 1.6 C 3.95 g/m*3 1.6 C 0 km/h
331 12-04-2019 03:30:00 1.6 C 3.95 g/m*3 1.6 C 0 km/h
332 12-04-2019 03:35:00 1.6 C 3.95 g/m*3 1.6 C 3.2 km/h
333 12-04-2019 03:40:00 1.6 C 4 g/m*3 1.6 C 3.2 km/h
334 12-04-2019 03:45:00 1.6 C 4.06 g/m*3 1.6 C 1.6 km/h
335 12-04-2019 03:50:00 1.6 C 4.06 g/m*3 1.6 C 3.2 km/h
336 12-04-2019 03:55:00 1.6 C 4.11 g/m*3 1.6 C 4.8 km/h
337 12-04-2019 04:00:00 1.6 C 4.16 g/m*3 1.6 C 3.2 km/h
338 12-04-2019 04:05:00 1.7 C 4.14 g/m*3 1.7 C 1.6 km/h
339 12-04-2019 04:10:00 1.8 C 4.17 g/m*3 1.8 C 1.6 km/h
340 12-04-2019 04:15:00 1.9 C 4.25 g/m*3 1.9 C 0 km/h
341 12-04-2019 04:20:00 2.1 C 4.25 g/m*3 2.1 C 1.6 km/h
342 12-04-2019 04:25:00 2.2 C 4.22 g/m*3 2.2 C 0 km/h
343 12-04-2019 04:30:00 2.3 C 4.25 g/m*3 2.3 C 0 km/h
344 12-04-2019 04:35:00 2.3 C 4.25 g/m*3 2.3 C 0 km/h
345 12-04-2019 04:40:00 2.4 C 4.28 g/m*3 2.4 C 0 km/h
346 12-04-2019 04:45:00 2.5 C 4.25 g/m*3 2.5 C 0 km/h
347 12-04-2019 04:50:00 2.5 C 4.25 g/m*3 2.5 C 0 km/h
348 12-04-2019 04:55:00 2.6 C 4.22 g/m*3 2.6 C 0 km/h
349 12-04-2019 05:00:00 2.6 C 4.28 g/m*3 2.6 C 0 km/h
350 12-04-2019 05:05:00 2.6 C 4.22 g/m*3 2.6 C 0 km/h
Sensor: Nr:Datum:Temp:Abs-Feuchte:Windchill:Wind:
Aussen-T/F 351 12-04-2019 05:10:00 2.7 C 4.25 g/m*3 2.7 C 0 km/h
352 12-04-2019 05:15:00 2.7 C 4.31 g/m*3 2.7 C 0 km/h
353 12-04-2019 05:20:00 2.7 C 4.31 g/m*3 2.7 C 0 km/h
354 12-04-2019 05:25:00 2.7 C 4.31 g/m*3 2.7 C 0 km/h
355 12-04-2019 05:30:00 2.7 C 4.31 g/m*3 2.7 C 0 km/h
356 12-04-2019 05:35:00 2.7 C 4.25 g/m*3 2.7 C 0 km/h
357 12-04-2019 05:40:00 2.7 C 4.2 g/m*3 2.7 C 0 km/h
358 12-04-2019 05:45:00 2.8 C 4.22 g/m*3 2.8 C 0 km/h
359 12-04-2019 05:50:00 2.8 C 4.28 g/m*3 2.8 C 0 km/h
360 12-04-2019 05:55:00 2.8 C 4.28 g/m*3 2.8 C 0 km/h
361 12-04-2019 06:00:00 2.8 C 4.28 g/m*3 2.8 C 0 km/h
362 12-04-2019 06:05:00 2.8 C 4.28 g/m*3 2.8 C 0 km/h
363 12-04-2019 06:10:00 2.8 C 4.22 g/m*3 2.8 C 0 km/h
364 12-04-2019 06:15:00 2.9 C 4.25 g/m*3 2.9 C 0 km/h
365 12-04-2019 06:20:00 2.9 C 4.25 g/m*3 2.9 C 0 km/h
366 12-04-2019 06:25:00 3 C 4.1 g/m*3 3 C 0 km/h
367 12-04-2019 06:30:00 3.1 C 4.19 g/m*3 3.1 C 0 km/h
368 12-04-2019 06:35:00 3.1 C 4.13 g/m*3 3.1 C 0 km/h
369 12-04-2019 06:40:00 3.1 C 4.19 g/m*3 3.1 C 0 km/h
370 12-04-2019 06:45:00 3.1 C 4.19 g/m*3 3.1 C 0 km/h
371 12-04-2019 06:50:00 3.1 C 4.19 g/m*3 3.1 C 0 km/h
372 12-04-2019 06:55:00 3.1 C 4.25 g/m*3 3.1 C 0 km/h
373 12-04-2019 07:00:00 3.1 C 4.25 g/m*3 3.1 C 1.6 km/h
374 12-04-2019 07:05:00 3.1 C 4.25 g/m*3 3.1 C 0 km/h
375 12-04-2019 07:10:00 3.1 C 4.31 g/m*3 3.1 C 0 km/h
Sensor: Nr:Datum:Temp:Abs-Feuchte:Windchill:Wind:
Aussen-T/F 376 12-04-2019 07:15:00 3.1 C 4.25 g/m*3 3.1 C 0 km/h
377 12-04-2019 07:20:00 3.1 C 4.13 g/m*3 3.1 C 0 km/h
378 12-04-2019 07:25:00 3.2 C 4.04 g/m*3 3.2 C 3.2 km/h
379 12-04-2019 07:30:00 3.4 C 4.03 g/m*3 3.4 C 3.2 km/h
380 12-04-2019 07:35:00 3.6 C 4.02 g/m*3 1.98 C 6.4 km/h
381 12-04-2019 07:40:00 3.7 C 3.99 g/m*3 3.7 C 4.8 km/h
382 12-04-2019 07:45:00 3.9 C 4.04 g/m*3 3.9 C 4.8 km/h
383 12-04-2019 07:50:00 4.1 C 3.9 g/m*3 2.05 C 8.1 km/h
384 12-04-2019 07:55:00 4.3 C 3.96 g/m*3 4.3 C 4.8 km/h
385 12-04-2019 08:00:00 4.3 C 3.89 g/m*3 2.29 C 8.1 km/h
386 12-04-2019 08:05:00 4.4 C 3.92 g/m*3 2.01 C 9.7 km/h
387 12-04-2019 08:10:00 4.5 C 3.88 g/m*3 2.52 C 8.1 km/h
388 12-04-2019 08:15:00 4.6 C 3.84 g/m*3 1.91 C 11.3 km/h
389 12-04-2019 08:20:00 4.6 C 3.77 g/m*3 0.65 C 19.3 km/h
390 12-04-2019 08:25:00 4.6 C 3.84 g/m*3 1.61 C 12.9 km/h
391 12-04-2019 08:30:00 4.7 C 3.86 g/m*3 2.37 C 9.7 km/h
392 12-04-2019 08:35:00 4.7 C 3.8 g/m*3 2.37 C 9.7 km/h
393 12-04-2019 08:40:00 4.8 C 3.82 g/m*3 2.15 C 11.3 km/h
394 12-04-2019 08:45:00 4.8 C 3.82 g/m*3 1.85 C 12.9 km/h
395 12-04-2019 08:50:00 4.8 C 3.96 g/m*3 2.49 C 9.7 km/h
396 12-04-2019 08:55:00 4.8 C 3.82 g/m*3 2.15 C 11.3 km/h
397 12-04-2019 09:00:00 4.9 C 3.85 g/m*3 2.27 C 11.3 km/h
398 12-04-2019 09:05:00 4.9 C 3.85 g/m*3 2.27 C 11.3 km/h
399 12-04-2019 09:10:00 4.9 C 3.85 g/m*3 1.7 C 14.5 km/h
400 12-04-2019 09:15:00 4.9 C 3.85 g/m*3 2.99 C 8.1 km/h
Sensor: Nr:Datum:Temp:Abs-Feuchte:Windchill:Wind:
Aussen-T/F 401 12-04-2019 09:20:00 5 C 3.87 g/m*3 2.72 C 9.7 km/h
402 12-04-2019 09:25:00 5 C 3.81 g/m*3 2.09 C 12.9 km/h
403 12-04-2019 09:30:00 5.1 C 3.83 g/m*3 2.51 C 11.3 km/h
404 12-04-2019 09:35:00 5.1 C 3.76 g/m*3 1.71 C 16.1 km/h
405 12-04-2019 09:40:00 5.1 C 3.83 g/m*3 3.71 C 6.4 km/h
406 12-04-2019 09:45:00 5.1 C 3.83 g/m*3 2.51 C 11.3 km/h
407 12-04-2019 09:50:00 5.2 C 3.79 g/m*3 2.07 C 14.5 km/h
408 12-04-2019 09:55:00 5.2 C 3.72 g/m*3 1.83 C 16.1 km/h
409 12-04-2019 10:00:00 5.2 C 3.79 g/m*3 2.07 C 14.5 km/h
410 12-04-2019 10:05:00 5.3 C 3.81 g/m*3 2.75 C 11.3 km/h
411 12-04-2019 10:10:00 5.4 C 3.77 g/m*3 1.12 C 24.1 km/h
412 12-04-2019 10:15:00 5.4 C 3.7 g/m*3 1.12 C 24.1 km/h
413 12-04-2019 10:20:00 5.4 C 3.7 g/m*3 1.86 C 17.7 km/h
414 12-04-2019 10:25:00 5.4 C 3.7 g/m*3 1.47 C 20.9 km/h
415 12-04-2019 10:30:00 5.5 C 3.72 g/m*3 1.99 C 17.7 km/h
416 12-04-2019 10:35:00 5.6 C 3.75 g/m*3 2.57 C 14.5 km/h
417 12-04-2019 10:40:00 5.6 C 3.75 g/m*3 2.11 C 17.7 km/h
418 12-04-2019 10:45:00 5.7 C 3.7 g/m*3 2.24 C 17.7 km/h
419 12-04-2019 10:50:00 5.7 C 3.77 g/m*3 1.67 C 22.5 km/h
420 12-04-2019 10:55:00 5.7 C 3.7 g/m*3 2.45 C 16.1 km/h
421 12-04-2019 11:00:00 5.7 C 3.77 g/m*3 2.45 C 16.1 km/h
422 12-04-2019 11:05:00 5.8 C 3.72 g/m*3 1.63 C 24.1 km/h
423 12-04-2019 11:10:00 5.8 C 3.72 g/m*3 1.8 C 22.5 km/h
424 12-04-2019 11:15:00 5.8 C 3.72 g/m*3 2.58 C 16.1 km/h
425 12-04-2019 11:20:00 5.9 C 3.75 g/m*3 2.1 C 20.9 km/h
Sensor: Nr:Datum:Temp:Abs-Feuchte:Windchill:Wind:
Aussen-T/F 426 12-04-2019 11:25:00 5.9 C 3.68 g/m*3 1.93 C 22.5 km/h
427 12-04-2019 11:30:00 6 C 3.77 g/m*3 2.23 C 20.9 km/h
428 12-04-2019 11:35:00 6.1 C 3.8 g/m*3 2.18 C 22.5 km/h
429 12-04-2019 11:40:00 6.1 C 3.8 g/m*3 2.95 C 16.1 km/h
430 12-04-2019 11:45:00 6.2 C 3.82 g/m*3 2.66 C 19.3 km/h
431 12-04-2019 11:50:00 6.2 C 3.75 g/m*3 3.3 C 14.5 km/h
432 12-04-2019 11:55:00 6.3 C 3.78 g/m*3 2.98 C 17.7 km/h
433 12-04-2019 12:00:00 6.3 C 3.7 g/m*3 2.61 C 20.9 km/h
434 12-04-2019 12:05:00 6.4 C 3.87 g/m*3 3.55 C 14.5 km/h
435 12-04-2019 12:10:00 6.6 C 3.85 g/m*3 4.04 C 12.9 km/h
436 12-04-2019 12:15:00 6.7 C 3.8 g/m*3 3.92 C 14.5 km/h
437 12-04-2019 12:20:00 6.8 C 3.82 g/m*3 3.61 C 17.7 km/h
438 12-04-2019 12:25:00 6.8 C 3.9 g/m*3 4.56 C 11.3 km/h
439 12-04-2019 12:30:00 6.8 C 3.9 g/m*3 5.67 C 6.4 km/h
440 12-04-2019 12:35:00 7 C 3.87 g/m*3 4.53 C 12.9 km/h
441 12-04-2019 12:40:00 6.9 C 3.77 g/m*3 4.68 C 11.3 km/h
442 12-04-2019 12:45:00 6.9 C 3.77 g/m*3 4.16 C 14.5 km/h
443 12-04-2019 12:50:00 7.1 C 3.82 g/m*3 4.92 C 11.3 km/h
444 12-04-2019 12:55:00 7.1 C 3.74 g/m*3 3.62 C 20.9 km/h
445 12-04-2019 13:00:00 7.2 C 3.77 g/m*3 5.04 C 11.3 km/h
446 12-04-2019 13:05:00 7.2 C 3.69 g/m*3 4.53 C 14.5 km/h
447 12-04-2019 13:10:00 7 C 3.64 g/m*3 4.53 C 12.9 km/h
448 12-04-2019 13:15:00 7 C 3.72 g/m*3 5.46 C 8.1 km/h
449 12-04-2019 13:20:00 7.2 C 3.85 g/m*3 5.69 C 8.1 km/h
450 12-04-2019 13:25:00 7.3 C 3.79 g/m*3 5.16 C 11.3 km/h
Sensor: Nr:Datum:Temp:Abs-Feuchte:Windchill:Wind:
Aussen-T/F 451 12-04-2019 13:30:00 7.2 C 3.69 g/m*3 4.77 C 12.9 km/h
452 12-04-2019 13:35:00 7.1 C 3.67 g/m*3 4.41 C 14.5 km/h
453 12-04-2019 13:40:00 7.1 C 3.74 g/m*3 6.02 C 6.4 km/h
454 12-04-2019 13:45:00 7.2 C 3.77 g/m*3 4.31 C 16.1 km/h
455 12-04-2019 13:50:00 7.2 C 3.77 g/m*3 4.77 C 12.9 km/h
456 12-04-2019 13:55:00 7.2 C 3.77 g/m*3 4.77 C 12.9 km/h
457 12-04-2019 14:00:00 7.1 C 3.74 g/m*3 5.23 C 9.7 km/h
458 12-04-2019 14:05:00 7.2 C 3.77 g/m*3 4.77 C 12.9 km/h
459 12-04-2019 14:10:00 7.3 C 3.71 g/m*3 4.23 C 17.7 km/h
460 12-04-2019 14:15:00 7.2 C 3.69 g/m*3 4.77 C 12.9 km/h
461 12-04-2019 14:20:00 7.2 C 3.69 g/m*3 4.77 C 12.9 km/h
462 12-04-2019 14:25:00 7.3 C 3.71 g/m*3 5.16 C 11.3 km/h
463 12-04-2019 14:30:00 7.3 C 3.71 g/m*3 5.16 C 11.3 km/h
464 12-04-2019 14:35:00 7.4 C 3.74 g/m*3 4.56 C 16.1 km/h
465 12-04-2019 14:40:00 7.3 C 3.63 g/m*3 4.66 C 14.5 km/h
466 12-04-2019 14:45:00 7.3 C 3.63 g/m*3 5.16 C 11.3 km/h
467 12-04-2019 14:50:00 7.3 C 3.63 g/m*3 4.9 C 12.9 km/h
468 12-04-2019 14:55:00 7.3 C 3.63 g/m*3 4.9 C 12.9 km/h
469 12-04-2019 15:00:00 7.6 C 3.87 g/m*3 5.53 C 11.3 km/h
470 12-04-2019 15:05:00 7.7 C 3.81 g/m*3 5.94 C 9.7 km/h
471 12-04-2019 15:10:00 7.6 C 3.71 g/m*3 4.81 C 16.1 km/h
472 12-04-2019 15:15:00 7.6 C 3.71 g/m*3 5.53 C 11.3 km/h
473 12-04-2019 15:20:00 7.6 C 3.63 g/m*3 6.16 C 8.1 km/h
474 12-04-2019 15:25:00 7.6 C 3.71 g/m*3 5.02 C 14.5 km/h
475 12-04-2019 15:30:00 7.6 C 3.79 g/m*3 5.26 C 12.9 km/h
Sensor: Nr:Datum:Temp:Abs-Feuchte:Windchill:Wind:
Aussen-T/F 476 12-04-2019 15:35:00 7.6 C 3.79 g/m*3 5.53 C 11.3 km/h
477 12-04-2019 15:40:00 7.6 C 3.71 g/m*3 4.61 C 17.7 km/h
478 12-04-2019 15:45:00 7.4 C 3.66 g/m*3 4.78 C 14.5 km/h
479 12-04-2019 15:50:00 7.4 C 3.74 g/m*3 5.58 C 9.7 km/h
480 12-04-2019 15:55:00 7.5 C 3.68 g/m*3 4.9 C 14.5 km/h
481 12-04-2019 16:00:00 7.4 C 3.66 g/m*3 5.93 C 8.1 km/h
482 12-04-2019 16:05:00 7.5 C 3.76 g/m*3 4.9 C 14.5 km/h
483 12-04-2019 16:10:00 7.4 C 3.74 g/m*3 5.93 C 8.1 km/h
484 12-04-2019 16:15:00 7.4 C 3.74 g/m*3 4.56 C 16.1 km/h
485 12-04-2019 16:20:00 7.4 C 3.74 g/m*3 5.28 C 11.3 km/h
486 12-04-2019 16:25:00 7.4 C 3.82 g/m*3 5.28 C 11.3 km/h
487 12-04-2019 16:30:00 7.3 C 3.71 g/m*3 4.44 C 16.1 km/h
488 12-04-2019 16:35:00 7.2 C 3.77 g/m*3 5.35 C 9.7 km/h
489 12-04-2019 16:40:00 7.2 C 3.77 g/m*3 5.35 C 9.7 km/h
490 12-04-2019 16:45:00 7.2 C 3.69 g/m*3 5.04 C 11.3 km/h
491 12-04-2019 16:50:00 7.1 C 3.82 g/m*3 5.58 C 8.1 km/h
492 12-04-2019 16:55:00 7.1 C 3.67 g/m*3 4.92 C 11.3 km/h
493 12-04-2019 17:00:00 7.1 C 3.67 g/m*3 6.02 C 6.4 km/h
494 12-04-2019 17:05:00 7.1 C 3.74 g/m*3 5.23 C 9.7 km/h
495 12-04-2019 17:10:00 7.1 C 3.67 g/m*3 5.58 C 8.1 km/h
496 12-04-2019 17:15:00 7.1 C 3.67 g/m*3 6.02 C 6.4 km/h
497 12-04-2019 17:20:00 7.1 C 3.67 g/m*3 5.23 C 9.7 km/h
498 12-04-2019 17:25:00 7.1 C 3.59 g/m*3 5.58 C 8.1 km/h
499 12-04-2019 17:30:00 7.1 C 3.67 g/m*3 5.58 C 8.1 km/h
500 12-04-2019 17:35:00 7.1 C 3.67 g/m*3 5.58 C 8.1 km/h
Sensor: Nr:Datum:Temp:Abs-Feuchte:Windchill:Wind:
Aussen-T/F 501 12-04-2019 17:40:00 7.1 C 3.59 g/m*3 5.23 C 9.7 km/h
502 12-04-2019 17:45:00 7.1 C 3.59 g/m*3 5.58 C 8.1 km/h
503 12-04-2019 17:50:00 7.1 C 3.51 g/m*3 5.23 C 9.7 km/h
504 12-04-2019 17:55:00 7.1 C 3.67 g/m*3 4.92 C 11.3 km/h
505 12-04-2019 18:00:00 7.1 C 3.74 g/m*3 3.98 C 17.7 km/h
506 12-04-2019 18:05:00 7 C 3.87 g/m*3 4.53 C 12.9 km/h
507 12-04-2019 18:10:00 6.9 C 3.7 g/m*3 4.68 C 11.3 km/h
508 12-04-2019 18:15:00 6.9 C 3.7 g/m*3 4.68 C 11.3 km/h
509 12-04-2019 18:20:00 6.8 C 3.67 g/m*3 4.29 C 12.9 km/h
510 12-04-2019 18:25:00 6.8 C 3.67 g/m*3 4.56 C 11.3 km/h
511 12-04-2019 18:30:00 6.8 C 3.75 g/m*3 5.22 C 8.1 km/h
512 12-04-2019 18:35:00 6.8 C 3.75 g/m*3 5.22 C 8.1 km/h
513 12-04-2019 18:40:00 6.8 C 3.82 g/m*3 4.04 C 14.5 km/h
514 12-04-2019 18:45:00 6.7 C 3.8 g/m*3 4.17 C 12.9 km/h
515 12-04-2019 18:50:00 6.7 C 3.8 g/m*3 4.44 C 11.3 km/h
516 12-04-2019 18:55:00 6.7 C 3.8 g/m*3 5.11 C 8.1 km/h
517 12-04-2019 19:00:00 6.7 C 3.88 g/m*3 5.11 C 8.1 km/h
518 12-04-2019 19:05:00 6.7 C 3.88 g/m*3 5.56 C 6.4 km/h
519 12-04-2019 19:10:00 6.7 C 3.88 g/m*3 4.44 C 11.3 km/h
520 12-04-2019 19:15:00 6.7 C 3.95 g/m*3 4.44 C 11.3 km/h
521 12-04-2019 19:20:00 6.6 C 3.93 g/m*3 4.99 C 8.1 km/h
522 12-04-2019 19:25:00 6.5 C 3.9 g/m*3 4.87 C 8.1 km/h
523 12-04-2019 19:30:00 6.5 C 3.9 g/m*3 4.51 C 9.7 km/h
524 12-04-2019 19:35:00 6.4 C 3.87 g/m*3 4.08 C 11.3 km/h
525 12-04-2019 19:40:00 6.4 C 3.87 g/m*3 4.08 C 11.3 km/h
Sensor: Nr:Datum:Temp:Abs-Feuchte:Windchill:Wind:
Aussen-T/F 526 12-04-2019 19:45:00 6.4 C 3.95 g/m*3 4.08 C 11.3 km/h
527 12-04-2019 19:50:00 6.4 C 3.95 g/m*3 3.8 C 12.9 km/h
528 12-04-2019 19:55:00 6.3 C 3.92 g/m*3 3.43 C 14.5 km/h
529 12-04-2019 20:00:00 6.3 C 3.92 g/m*3 4.64 C 8.1 km/h
530 12-04-2019 20:05:00 6.3 C 3.92 g/m*3 4.27 C 9.7 km/h
531 12-04-2019 20:10:00 6.3 C 3.85 g/m*3 4.64 C 8.1 km/h
532 12-04-2019 20:15:00 6.2 C 3.82 g/m*3 4.52 C 8.1 km/h
533 12-04-2019 20:20:00 6.2 C 3.9 g/m*3 4.15 C 9.7 km/h
534 12-04-2019 20:25:00 6.2 C 4.04 g/m*3 3.84 C 11.3 km/h
535 12-04-2019 20:30:00 6.1 C 4.02 g/m*3 4.04 C 9.7 km/h
536 12-04-2019 20:35:00 5.9 C 4.04 g/m*3 3.8 C 9.7 km/h
537 12-04-2019 20:40:00 5.9 C 4.18 g/m*3 4.17 C 8.1 km/h
538 12-04-2019 20:45:00 5.8 C 4.08 g/m*3 4.52 C 6.4 km/h
539 12-04-2019 20:50:00 5.8 C 4.08 g/m*3 4.52 C 6.4 km/h
540 12-04-2019 20:55:00 5.8 C 4.15 g/m*3 5.8 C 4.8 km/h
541 12-04-2019 21:00:00 5.8 C 4.15 g/m*3 4.05 C 8.1 km/h
542 12-04-2019 21:05:00 5.7 C 4.13 g/m*3 3.56 C 9.7 km/h
543 12-04-2019 21:10:00 5.7 C 4.13 g/m*3 4.4 C 6.4 km/h
544 12-04-2019 21:15:00 5.7 C 4.2 g/m*3 3.93 C 8.1 km/h
545 12-04-2019 21:20:00 5.6 C 4.24 g/m*3 4.29 C 6.4 km/h
546 12-04-2019 21:25:00 5.6 C 4.24 g/m*3 4.29 C 6.4 km/h
547 12-04-2019 21:30:00 5.6 C 4.31 g/m*3 4.29 C 6.4 km/h
548 12-04-2019 21:35:00 5.5 C 4.21 g/m*3 3.7 C 8.1 km/h
549 12-04-2019 21:40:00 5.5 C 4.21 g/m*3 3.7 C 8.1 km/h
550 12-04-2019 21:45:00 5.4 C 4.33 g/m*3 5.4 C 1.6 km/h
Sensor: Nr:Datum:Temp:Abs-Feuchte:Windchill:Wind:
Aussen-T/F 551 12-04-2019 21:50:00 5.3 C 4.37 g/m*3 5.3 C 1.6 km/h
552 12-04-2019 21:55:00 5.2 C 4.41 g/m*3 5.2 C 1.6 km/h
553 12-04-2019 22:00:00 5.1 C 4.38 g/m*3 5.1 C 0 km/h
554 12-04-2019 22:05:00 4.9 C 4.39 g/m*3 4.9 C 1.6 km/h
555 12-04-2019 22:10:00 4.7 C 4.33 g/m*3 4.7 C 0 km/h
556 12-04-2019 22:15:00 4.6 C 4.37 g/m*3 4.6 C 0 km/h
557 12-04-2019 22:20:00 4.5 C 4.34 g/m*3 4.5 C 0 km/h
558 12-04-2019 22:25:00 4.4 C 4.37 g/m*3 4.4 C 0 km/h
559 12-04-2019 22:30:00 4.3 C 4.35 g/m*3 4.3 C 0 km/h
560 12-04-2019 22:35:00 4.2 C 4.32 g/m*3 4.2 C 0 km/h
561 12-04-2019 22:40:00 4.2 C 4.32 g/m*3 4.2 C 0 km/h
562 12-04-2019 22:45:00 4.1 C 4.35 g/m*3 4.1 C 0 km/h
563 12-04-2019 22:50:00 3.9 C 4.29 g/m*3 3.9 C 0 km/h
564 12-04-2019 22:55:00 3.8 C 4.27 g/m*3 3.8 C 1.6 km/h
565 12-04-2019 23:00:00 3.8 C 4.27 g/m*3 3.8 C 0 km/h
566 12-04-2019 23:05:00 3.7 C 4.24 g/m*3 3.7 C 0 km/h
567 12-04-2019 23:10:00 3.7 C 4.24 g/m*3 3.7 C 0 km/h
568 12-04-2019 23:15:00 3.7 C 4.24 g/m*3 3.7 C 0 km/h
569 12-04-2019 23:20:00 3.6 C 4.27 g/m*3 3.6 C 0 km/h
570 12-04-2019 23:25:00 3.6 C 4.27 g/m*3 3.6 C 1.6 km/h
571 12-04-2019 23:30:00 3.6 C 4.27 g/m*3 3.6 C 0 km/h
572 12-04-2019 23:35:00 3.6 C 4.21 g/m*3 3.6 C 0 km/h
573 12-04-2019 23:40:00 3.6 C 4.27 g/m*3 3.6 C 0 km/h
574 12-04-2019 23:45:00 3.4 C 4.21 g/m*3 3.4 C 0 km/h
575 12-04-2019 23:50:00 3.4 C 4.21 g/m*3 3.4 C 0 km/h
Sensor: Nr:Datum:Temp:Abs-Feuchte:Windchill:Wind:
Aussen-T/F 576 12-04-2019 23:55:00 3.3 C 4.25 g/m*3 3.3 C 0 km/h
577 13-04-2019 00:00:00 3.2 C 4.28 g/m*3 3.2 C 0 km/h
578 13-04-2019 00:05:00 3.1 C 4.31 g/m*3 3.1 C 0 km/h
579 13-04-2019 00:10:00 3 C 4.28 g/m*3 3 C 0 km/h
580 13-04-2019 00:15:00 2.9 C 4.25 g/m*3 2.9 C 0 km/h
581 13-04-2019 00:20:00 2.9 C 4.25 g/m*3 2.9 C 0 km/h
582 13-04-2019 00:25:00 2.9 C 4.25 g/m*3 2.9 C 3.2 km/h
583 13-04-2019 00:30:00 2.9 C 4.25 g/m*3 2.9 C 0 km/h
584 13-04-2019 00:35:00 2.9 C 4.31 g/m*3 2.9 C 0 km/h
585 13-04-2019 00:40:00 2.9 C 4.31 g/m*3 2.9 C 3.2 km/h
586 13-04-2019 00:45:00 2.9 C 4.37 g/m*3 2.9 C 0 km/h
587 13-04-2019 00:50:00 2.9 C 4.37 g/m*3 2.9 C 0 km/h
588 13-04-2019 00:55:00 2.9 C 4.37 g/m*3 2.9 C 1.6 km/h
589 13-04-2019 01:00:00 2.9 C 4.31 g/m*3 2.9 C 4.8 km/h
590 13-04-2019 01:05:00 3 C 4.34 g/m*3 3 C 1.6 km/h
591 13-04-2019 01:10:00 3 C 4.34 g/m*3 3 C 0 km/h
592 13-04-2019 01:15:00 3 C 4.34 g/m*3 3 C 0 km/h
593 13-04-2019 01:20:00 2.9 C 4.31 g/m*3 2.9 C 3.2 km/h
594 13-04-2019 01:25:00 2.9 C 4.25 g/m*3 2.9 C 3.2 km/h
595 13-04-2019 01:30:00 2.8 C 4.28 g/m*3 2.8 C 4.8 km/h
596 13-04-2019 01:35:00 2.8 C 4.28 g/m*3 2.8 C 1.6 km/h
597 13-04-2019 01:40:00 2.8 C 4.28 g/m*3 2.8 C 3.2 km/h
598 13-04-2019 01:45:00 2.8 C 4.28 g/m*3 2.8 C 1.6 km/h
599 13-04-2019 01:50:00 2.8 C 4.34 g/m*3 2.8 C 0 km/h
600 13-04-2019 01:55:00 2.8 C 4.34 g/m*3 2.8 C 1.6 km/h
Sensor: Nr:Datum:Temp:Abs-Feuchte:Windchill:Wind:
Aussen-T/F 601 13-04-2019 02:00:00 2.7 C 4.37 g/m*3 2.7 C 0 km/h
602 13-04-2019 02:05:00 2.7 C 4.37 g/m*3 2.7 C 1.6 km/h
603 13-04-2019 02:10:00 2.7 C 4.37 g/m*3 2.7 C 3.2 km/h
604 13-04-2019 02:15:00 2.7 C 4.37 g/m*3 0.94 C 6.4 km/h
605 13-04-2019 02:20:00 2.7 C 4.43 g/m*3 0.94 C 6.4 km/h
606 13-04-2019 02:25:00 2.7 C 4.43 g/m*3 2.7 C 1.6 km/h
607 13-04-2019 02:30:00 2.7 C 4.37 g/m*3 2.7 C 0 km/h
608 13-04-2019 02:35:00 2.7 C 4.43 g/m*3 2.7 C 0 km/h
609 13-04-2019 02:40:00 2.6 C 4.4 g/m*3 2.6 C 0 km/h
610 13-04-2019 02:45:00 2.5 C 4.37 g/m*3 2.5 C 0 km/h
611 13-04-2019 02:50:00 2.4 C 4.4 g/m*3 2.4 C 0 km/h
612 13-04-2019 02:55:00 2.3 C 4.37 g/m*3 2.3 C 0 km/h
613 13-04-2019 03:00:00 2.2 C 4.34 g/m*3 2.2 C 0 km/h
614 13-04-2019 03:05:00 2.2 C 4.39 g/m*3 2.2 C 0 km/h
615 13-04-2019 03:10:00 2.2 C 4.39 g/m*3 2.2 C 0 km/h
616 13-04-2019 03:15:00 2.3 C 4.42 g/m*3 2.3 C 0 km/h
617 13-04-2019 03:20:00 2.3 C 4.42 g/m*3 2.3 C 1.6 km/h
618 13-04-2019 03:25:00 2.3 C 4.42 g/m*3 2.3 C 0 km/h
619 13-04-2019 03:30:00 2.3 C 4.42 g/m*3 2.3 C 0 km/h
620 13-04-2019 03:35:00 2.3 C 4.42 g/m*3 2.3 C 0 km/h
621 13-04-2019 03:40:00 2.4 C 4.45 g/m*3 2.4 C 0 km/h
622 13-04-2019 03:45:00 2.4 C 4.45 g/m*3 2.4 C 1.6 km/h
623 13-04-2019 03:50:00 2.4 C 4.45 g/m*3 2.4 C 0 km/h
624 13-04-2019 03:55:00 2.4 C 4.45 g/m*3 2.4 C 0 km/h
625 13-04-2019 04:00:00 2.3 C 4.42 g/m*3 2.3 C 1.6 km/h
Sensor: Nr:Datum:Temp:Abs-Feuchte:Windchill:Wind:
Aussen-T/F 626 13-04-2019 04:05:00 2.3 C 4.42 g/m*3 2.3 C 3.2 km/h
627 13-04-2019 04:10:00 2.4 C 4.4 g/m*3 0.05 C 8.1 km/h
628 13-04-2019 04:15:00 2.5 C 4.43 g/m*3 2.5 C 0 km/h
629 13-04-2019 04:20:00 2.6 C 4.51 g/m*3 2.6 C 0 km/h
630 13-04-2019 04:25:00 2.7 C 4.49 g/m*3 2.7 C 0 km/h
631 13-04-2019 04:30:00 2.7 C 4.54 g/m*3 2.7 C 0 km/h
632 13-04-2019 04:35:00 2.7 C 4.54 g/m*3 2.7 C 0 km/h
633 13-04-2019 04:40:00 2.7 C 4.49 g/m*3 2.7 C 1.6 km/h
634 13-04-2019 04:45:00 2.7 C 4.49 g/m*3 2.7 C 4.8 km/h
635 13-04-2019 04:50:00 2.8 C 4.52 g/m*3 2.8 C 4.8 km/h
636 13-04-2019 04:55:00 2.8 C 4.52 g/m*3 2.8 C 3.2 km/h
637 13-04-2019 05:00:00 2.9 C 4.55 g/m*3 2.9 C 1.6 km/h
638 13-04-2019 05:05:00 2.9 C 4.55 g/m*3 2.9 C 1.6 km/h
639 13-04-2019 05:10:00 2.8 C 4.52 g/m*3 2.8 C 1.6 km/h
640 13-04-2019 05:15:00 2.7 C 4.49 g/m*3 2.7 C 0 km/h
641 13-04-2019 05:20:00 2.7 C 4.49 g/m*3 2.7 C 0 km/h
642 13-04-2019 05:25:00 2.6 C 4.51 g/m*3 2.6 C 0 km/h
643 13-04-2019 05:30:00 2.4 C 4.45 g/m*3 2.4 C 0 km/h
644 13-04-2019 05:35:00 2.4 C 4.45 g/m*3 2.4 C 0 km/h
645 13-04-2019 05:40:00 2.3 C 4.48 g/m*3 2.3 C 0 km/h
646 13-04-2019 05:45:00 2.3 C 4.48 g/m*3 2.3 C 0 km/h
647 13-04-2019 05:50:00 2.3 C 4.48 g/m*3 2.3 C 0 km/h
648 13-04-2019 05:55:00 2.2 C 4.51 g/m*3 2.2 C 0 km/h
649 13-04-2019 06:00:00 2.2 C 4.51 g/m*3 2.2 C 0 km/h
650 13-04-2019 06:05:00 2.2 C 4.51 g/m*3 2.2 C 4.8 km/h
Sensor: Nr:Datum:Temp:Abs-Feuchte:Windchill:Wind:
Aussen-T/F 651 13-04-2019 06:10:00 2.2 C 4.56 g/m*3 2.2 C 0 km/h
652 13-04-2019 06:15:00 2.2 C 4.56 g/m*3 2.2 C 0 km/h
653 13-04-2019 06:20:00 2.3 C 4.59 g/m*3 2.3 C 0 km/h
654 13-04-2019 06:25:00 2.3 C 4.59 g/m*3 2.3 C 0 km/h
655 13-04-2019 06:30:00 2.3 C 4.59 g/m*3 2.3 C 0 km/h
656 13-04-2019 06:35:00 2.2 C 4.56 g/m*3 2.2 C 1.6 km/h
657 13-04-2019 06:40:00 2.3 C 4.59 g/m*3 2.3 C 3.2 km/h
658 13-04-2019 06:45:00 2.4 C 4.57 g/m*3 2.4 C 0 km/h
659 13-04-2019 06:50:00 2.4 C 4.57 g/m*3 2.4 C 0 km/h
660 13-04-2019 06:55:00 2.4 C 4.57 g/m*3 2.4 C 1.6 km/h
661 13-04-2019 07:00:00 2.4 C 4.57 g/m*3 2.4 C 0 km/h
662 13-04-2019 07:05:00 2.4 C 4.62 g/m*3 2.4 C 0 km/h
663 13-04-2019 07:10:00 2.4 C 4.62 g/m*3 2.4 C 0 km/h
664 13-04-2019 07:15:00 2.4 C 4.62 g/m*3 2.4 C 0 km/h
665 13-04-2019 07:20:00 2.3 C 4.59 g/m*3 2.3 C 3.2 km/h
666 13-04-2019 07:25:00 2.4 C 4.57 g/m*3 0.59 C 6.4 km/h
667 13-04-2019 07:30:00 2.4 C 4.57 g/m*3 2.4 C 1.6 km/h
668 13-04-2019 07:35:00 2.5 C 4.6 g/m*3 2.5 C 0 km/h
669 13-04-2019 07:40:00 2.6 C 4.63 g/m*3 2.6 C 0 km/h
670 13-04-2019 07:45:00 2.7 C 4.6 g/m*3 2.7 C 0 km/h
671 13-04-2019 07:50:00 2.7 C 4.6 g/m*3 0.94 C 6.4 km/h
672 13-04-2019 07:55:00 2.8 C 4.63 g/m*3 1.05 C 6.4 km/h
673 13-04-2019 08:00:00 2.9 C 4.67 g/m*3 2.9 C 4.8 km/h
674 13-04-2019 08:05:00 2.9 C 4.61 g/m*3 1.17 C 6.4 km/h
675 13-04-2019 08:10:00 2.9 C 4.61 g/m*3 2.9 C 4.8 km/h
Sensor: Nr:Datum:Temp:Abs-Feuchte:Windchill:Wind:
Aussen-T/F 676 13-04-2019 08:15:00 3 C 4.64 g/m*3 3 C 4.8 km/h
677 13-04-2019 08:20:00 3.1 C 4.67 g/m*3 3.1 C 4.8 km/h
678 13-04-2019 08:25:00 3.1 C 4.67 g/m*3 0.87 C 8.1 km/h
679 13-04-2019 08:30:00 3.2 C 4.64 g/m*3 1.51 C 6.4 km/h
680 13-04-2019 08:35:00 3.3 C 4.61 g/m*3 1.11 C 8.1 km/h
681 13-04-2019 08:40:00 3.2 C 4.58 g/m*3 1.51 C 6.4 km/h
682 13-04-2019 08:45:00 3.3 C 4.61 g/m*3 0.7 C 9.7 km/h
683 13-04-2019 08:50:00 3.3 C 4.61 g/m*3 1.11 C 8.1 km/h
684 13-04-2019 08:55:00 3.3 C 4.61 g/m*3 0.34 C 11.3 km/h
685 13-04-2019 09:00:00 3.3 C 4.61 g/m*3 1.63 C 6.4 km/h
686 13-04-2019 09:05:00 3.4 C 4.64 g/m*3 1.75 C 6.4 km/h
687 13-04-2019 09:10:00 3.4 C 4.58 g/m*3 1.23 C 8.1 km/h
688 13-04-2019 09:15:00 3.6 C 4.64 g/m*3 1.06 C 9.7 km/h
689 13-04-2019 09:20:00 3.7 C 4.61 g/m*3 2.09 C 6.4 km/h
690 13-04-2019 09:25:00 3.7 C 4.61 g/m*3 2.09 C 6.4 km/h
691 13-04-2019 09:30:00 3.7 C 4.49 g/m*3 0.23 C 14.5 km/h
692 13-04-2019 09:35:00 3.7 C 4.49 g/m*3 1.58 C 8.1 km/h
693 13-04-2019 09:40:00 3.7 C 4.55 g/m*3 2.09 C 6.4 km/h
694 13-04-2019 09:45:00 3.7 C 4.36 g/m*3 1.58 C 8.1 km/h
695 13-04-2019 09:50:00 3.7 C 4.42 g/m*3 3.7 C 3.2 km/h
696 13-04-2019 09:55:00 3.7 C 4.42 g/m*3 3.7 C 4.8 km/h
697 13-04-2019 10:00:00 3.8 C 4.45 g/m*3 3.8 C 4.8 km/h
698 13-04-2019 10:05:00 3.8 C 4.39 g/m*3 3.8 C 1.6 km/h
699 13-04-2019 10:10:00 4.1 C 4.42 g/m*3 4.1 C 3.2 km/h
700 13-04-2019 10:15:00 4.3 C 4.41 g/m*3 1.55 C 11.3 km/h
Sensor: Nr:Datum:Temp:Abs-Feuchte:Windchill:Wind:
Aussen-T/F 701 13-04-2019 10:20:00 4.7 C 4.4 g/m*3 2.37 C 9.7 km/h
702 13-04-2019 10:25:00 5 C 4.42 g/m*3 2.39 C 11.3 km/h
703 13-04-2019 10:30:00 5.2 C 4.34 g/m*3 3.34 C 8.1 km/h
704 13-04-2019 10:35:00 5.2 C 4.34 g/m*3 3.34 C 8.1 km/h
705 13-04-2019 10:40:00 5.3 C 4.3 g/m*3 3.46 C 8.1 km/h
706 13-04-2019 10:45:00 5.3 C 4.44 g/m*3 2.2 C 14.5 km/h
707 13-04-2019 10:50:00 5.2 C 4.54 g/m*3 3.34 C 8.1 km/h
708 13-04-2019 10:55:00 5.2 C 4.54 g/m*3 3.34 C 8.1 km/h
709 13-04-2019 11:00:00 5.2 C 4.61 g/m*3 3.34 C 8.1 km/h
710 13-04-2019 11:05:00 5.2 C 4.54 g/m*3 3.82 C 6.4 km/h
711 13-04-2019 11:10:00 5.2 C 4.34 g/m*3 3.82 C 6.4 km/h
712 13-04-2019 11:15:00 5.3 C 4.3 g/m*3 3.94 C 6.4 km/h
713 13-04-2019 11:20:00 5.2 C 4.13 g/m*3 3.34 C 8.1 km/h
714 13-04-2019 11:25:00 5.2 C 4.13 g/m*3 3.82 C 6.4 km/h
715 13-04-2019 11:30:00 5.3 C 4.16 g/m*3 3.46 C 8.1 km/h
716 13-04-2019 11:35:00 5.4 C 4.12 g/m*3 4.06 C 6.4 km/h
717 13-04-2019 11:40:00 5.4 C 4.12 g/m*3 5.4 C 3.2 km/h
718 13-04-2019 11:45:00 5.6 C 4.24 g/m*3 3.81 C 8.1 km/h
719 13-04-2019 11:50:00 5.7 C 4.2 g/m*3 3.23 C 11.3 km/h
720 13-04-2019 11:55:00 5.7 C 4.13 g/m*3 2.95 C 12.9 km/h
721 13-04-2019 12:00:00 5.7 C 4.13 g/m*3 5.7 C 4.8 km/h
722 13-04-2019 12:05:00 5.7 C 4.2 g/m*3 3.56 C 9.7 km/h
723 13-04-2019 12:10:00 5.6 C 3.96 g/m*3 2.11 C 17.7 km/h
724 13-04-2019 12:15:00 5.7 C 3.99 g/m*3 3.23 C 11.3 km/h
725 13-04-2019 12:20:00 5.8 C 3.94 g/m*3 3.68 C 9.7 km/h
Sensor: Nr:Datum:Temp:Abs-Feuchte:Windchill:Wind:
Aussen-T/F 726 13-04-2019 12:25:00 6.1 C 4.16 g/m*3 3.18 C 14.5 km/h
727 13-04-2019 12:30:00 6.1 C 4.16 g/m*3 3.72 C 11.3 km/h
728 13-04-2019 12:35:00 6.2 C 4.19 g/m*3 4.98 C 6.4 km/h
729 13-04-2019 12:40:00 6.2 C 4.34 g/m*3 3.84 C 11.3 km/h
730 13-04-2019 12:45:00 6.2 C 4.19 g/m*3 4.15 C 9.7 km/h
731 13-04-2019 12:50:00 6.2 C 4.27 g/m*3 3.3 C 14.5 km/h
732 13-04-2019 12:55:00 6.1 C 4.31 g/m*3 3.43 C 12.9 km/h
733 13-04-2019 13:00:00 6 C 4.5 g/m*3 4.28 C 8.1 km/h
734 13-04-2019 13:05:00 5.8 C 4.58 g/m*3 3.68 C 9.7 km/h
735 13-04-2019 13:10:00 5.6 C 4.67 g/m*3 3.44 C 9.7 km/h
736 13-04-2019 13:15:00 5.6 C 4.67 g/m*3 5.6 C 1.6 km/h
737 13-04-2019 13:20:00 5.6 C 4.67 g/m*3 5.6 C 4.8 km/h
738 13-04-2019 13:25:00 5.7 C 4.55 g/m*3 4.4 C 6.4 km/h
739 13-04-2019 13:30:00 5.8 C 4.44 g/m*3 2.81 C 14.5 km/h
740 13-04-2019 13:35:00 5.8 C 4.23 g/m*3 3.36 C 11.3 km/h
741 13-04-2019 13:40:00 5.7 C 4.34 g/m*3 2.69 C 14.5 km/h
742 13-04-2019 13:45:00 5.8 C 4.37 g/m*3 3.36 C 11.3 km/h
743 13-04-2019 13:50:00 5.9 C 4.25 g/m*3 3.48 C 11.3 km/h
744 13-04-2019 13:55:00 5.8 C 4.8 g/m*3 2.36 C 17.7 km/h
745 13-04-2019 14:00:00 5.5 C 4.78 g/m*3 3.32 C 9.7 km/h
746 13-04-2019 14:05:00 5.3 C 4.92 g/m*3 3.46 C 8.1 km/h
747 13-04-2019 14:10:00 5.2 C 4.89 g/m*3 2.34 C 12.9 km/h
748 13-04-2019 14:15:00 5.4 C 5.09 g/m*3 2.08 C 16.1 km/h
749 13-04-2019 14:20:00 5.4 C 5.23 g/m*3 1.66 C 19.3 km/h
750 13-04-2019 14:25:00 4.8 C 5.23 g/m*3 1.58 C 14.5 km/h
Sensor: Nr:Datum:Temp:Abs-Feuchte:Windchill:Wind:
Aussen-T/F 751 13-04-2019 14:30:00 4.4 C 5.16 g/m*3 1.36 C 12.9 km/h
752 13-04-2019 14:35:00 4.1 C 5.18 g/m*3 1 C 12.9 km/h
753 13-04-2019 14:40:00 4 C 5.21 g/m*3 4 C 3.2 km/h
754 13-04-2019 14:45:00 3.9 C 5.24 g/m*3 3.9 C 4.8 km/h
755 13-04-2019 14:50:00 4.1 C 5.38 g/m*3 4.1 C 1.6 km/h
756 13-04-2019 14:55:00 4.2 C 5.41 g/m*3 4.2 C 3.2 km/h
757 13-04-2019 15:00:00 4.4 C 5.35 g/m*3 4.4 C 3.2 km/h
758 13-04-2019 15:05:00 4.5 C 5.19 g/m*3 4.5 C 3.2 km/h
759 13-04-2019 15:10:00 4.7 C 5.33 g/m*3 4.7 C 0 km/h
760 13-04-2019 15:15:00 4.8 C 5.23 g/m*3 4.8 C 1.6 km/h
761 13-04-2019 15:20:00 5.3 C 5.2 g/m*3 5.3 C 4.8 km/h
762 13-04-2019 15:25:00 5.7 C 5.12 g/m*3 2.95 C 12.9 km/h
763 13-04-2019 15:30:00 6.2 C 5.44 g/m*3 3.84 C 11.3 km/h
764 13-04-2019 15:35:00 6.7 C 5.62 g/m*3 3.29 C 19.3 km/h
765 13-04-2019 15:40:00 6.6 C 5.44 g/m*3 3.79 C 14.5 km/h
766 13-04-2019 15:45:00 6.2 C 5.29 g/m*3 3.56 C 12.9 km/h
767 13-04-2019 15:50:00 6.1 C 5.11 g/m*3 4.4 C 8.1 km/h
768 13-04-2019 15:55:00 6.2 C 5.15 g/m*3 6.2 C 4.8 km/h
769 13-04-2019 16:00:00 6.3 C 5.03 g/m*3 4.64 C 8.1 km/h
770 13-04-2019 16:05:00 6.2 C 4.93 g/m*3 3.84 C 11.3 km/h
771 13-04-2019 16:10:00 6.4 C 4.99 g/m*3 4.75 C 8.1 km/h
772 13-04-2019 16:15:00 6.8 C 5.05 g/m*3 5.67 C 6.4 km/h
773 13-04-2019 16:20:00 7.1 C 4.99 g/m*3 4.65 C 12.9 km/h
774 13-04-2019 16:25:00 6.9 C 4.93 g/m*3 3.94 C 16.1 km/h
775 13-04-2019 16:30:00 6.5 C 4.65 g/m*3 3.92 C 12.9 km/h
Sensor: Nr:Datum:Temp:Abs-Feuchte:Windchill:Wind:
Aussen-T/F 776 13-04-2019 16:35:00 6.3 C 4.81 g/m*3 3.96 C 11.3 km/h
777 13-04-2019 16:40:00 6.3 C 5.11 g/m*3 2.61 C 20.9 km/h
778 13-04-2019 16:45:00 5.9 C 5.26 g/m*3 2.1 C 20.9 km/h
779 13-04-2019 16:50:00 5.2 C 5.37 g/m*3 1.4 C 19.3 km/h
780 13-04-2019 16:55:00 4.7 C 5.4 g/m*3 2.03 C 11.3 km/h
781 13-04-2019 17:00:00 4.3 C 5.38 g/m*3 1.89 C 9.7 km/h
782 13-04-2019 17:05:00 4.1 C 5.44 g/m*3 2.05 C 8.1 km/h
783 13-04-2019 17:10:00 3.9 C 5.37 g/m*3 2.32 C 6.4 km/h
784 13-04-2019 17:15:00 3.8 C 5.4 g/m*3 2.21 C 6.4 km/h
785 13-04-2019 17:20:00 3.8 C 5.46 g/m*3 3.8 C 0 km/h
786 13-04-2019 17:25:00 3.8 C 5.46 g/m*3 3.8 C 4.8 km/h
787 13-04-2019 17:30:00 3.9 C 5.49 g/m*3 3.9 C 3.2 km/h
788 13-04-2019 17:35:00 4.4 C 5.75 g/m*3 4.4 C 1.6 km/h
789 13-04-2019 17:40:00 4.9 C 5.74 g/m*3 4.9 C 4.8 km/h
790 13-04-2019 17:45:00 5.4 C 5.86 g/m*3 5.4 C 4.8 km/h
791 13-04-2019 17:50:00 6 C 5.88 g/m*3 3.92 C 9.7 km/h
792 13-04-2019 17:55:00 6.3 C 5.92 g/m*3 4.64 C 8.1 km/h
793 13-04-2019 18:00:00 6.8 C 6.04 g/m*3 5.67 C 6.4 km/h
794 13-04-2019 18:05:00 7.3 C 6.16 g/m*3 7.3 C 4.8 km/h
795 13-04-2019 18:10:00 7.7 C 6 g/m*3 7.7 C 3.2 km/h
796 13-04-2019 18:15:00 7.8 C 5.71 g/m*3 7.8 C 4.8 km/h
797 13-04-2019 18:20:00 7.4 C 5.57 g/m*3 6.37 C 6.4 km/h
798 13-04-2019 18:25:00 6.7 C 5.7 g/m*3 4.44 C 11.3 km/h
799 13-04-2019 18:30:00 5.8 C 5.52 g/m*3 3.36 C 11.3 km/h
800 13-04-2019 18:35:00 5.4 C 5.44 g/m*3 5.4 C 1.6 km/h
Sensor: Nr:Datum:Temp:Abs-Feuchte:Windchill:Wind:
Aussen-T/F 801 13-04-2019 18:40:00 5.3 C 5.61 g/m*3 5.3 C 1.6 km/h
802 13-04-2019 18:45:00 5.1 C 5.54 g/m*3 5.1 C 0 km/h
803 13-04-2019 18:50:00 5.1 C 5.47 g/m*3 5.1 C 0 km/h
804 13-04-2019 18:55:00 5.1 C 5.61 g/m*3 5.1 C 0 km/h
805 13-04-2019 19:00:00 5.2 C 5.58 g/m*3 5.2 C 0 km/h
806 13-04-2019 19:05:00 5.4 C 5.37 g/m*3 5.4 C 4.8 km/h
807 13-04-2019 19:10:00 5.7 C 5.41 g/m*3 5.7 C 3.2 km/h
808 13-04-2019 19:15:00 5.8 C 5.37 g/m*3 5.8 C 4.8 km/h
809 13-04-2019 19:20:00 5.7 C 5.34 g/m*3 5.7 C 3.2 km/h
810 13-04-2019 19:25:00 5.7 C 5.34 g/m*3 5.7 C 3.2 km/h
811 13-04-2019 19:30:00 5.6 C 5.44 g/m*3 5.6 C 0 km/h
812 13-04-2019 19:35:00 5.7 C 5.55 g/m*3 5.7 C 0 km/h
813 13-04-2019 19:40:00 5.7 C 5.62 g/m*3 5.7 C 1.6 km/h
814 13-04-2019 19:45:00 5.6 C 5.59 g/m*3 5.6 C 0 km/h
815 13-04-2019 19:50:00 5.6 C 5.59 g/m*3 5.6 C 0 km/h
816 13-04-2019 19:55:00 5.4 C 5.58 g/m*3 5.4 C 0 km/h
817 13-04-2019 20:00:00 5.3 C 5.54 g/m*3 5.3 C 0 km/h
818 13-04-2019 20:05:00 5.2 C 5.58 g/m*3 5.2 C 0 km/h
819 13-04-2019 20:10:00 5.1 C 5.54 g/m*3 5.1 C 1.6 km/h
820 13-04-2019 20:15:00 4.8 C 5.43 g/m*3 4.8 C 0 km/h
821 13-04-2019 20:20:00 4.7 C 5.33 g/m*3 4.7 C 4.8 km/h
822 13-04-2019 20:25:00 4.6 C 5.29 g/m*3 2.25 C 9.7 km/h
823 13-04-2019 20:30:00 4.5 C 5.19 g/m*3 4.5 C 4.8 km/h
824 13-04-2019 20:35:00 4.4 C 5.22 g/m*3 4.4 C 4.8 km/h
825 13-04-2019 20:40:00 4.4 C 5.29 g/m*3 4.4 C 3.2 km/h
Sensor: Nr:Datum:Temp:Abs-Feuchte:Windchill:Wind:
Aussen-T/F 826 13-04-2019 20:45:00 4.3 C 5.25 g/m*3 4.3 C 0 km/h
827 13-04-2019 20:50:00 4.2 C 5.28 g/m*3 4.2 C 1.6 km/h
828 13-04-2019 20:55:00 4.1 C 5.25 g/m*3 4.1 C 0 km/h
829 13-04-2019 21:00:00 4 C 5.28 g/m*3 4 C 0 km/h
830 13-04-2019 21:05:00 3.8 C 5.21 g/m*3 3.8 C 0 km/h
831 13-04-2019 21:10:00 3.7 C 5.17 g/m*3 3.7 C 0 km/h
832 13-04-2019 21:15:00 3.4 C 5.07 g/m*3 3.4 C 0 km/h
833 13-04-2019 21:20:00 3.3 C 5.04 g/m*3 3.3 C 0 km/h
834 13-04-2019 21:25:00 3.1 C 5.03 g/m*3 3.1 C 0 km/h
835 13-04-2019 21:30:00 2.9 C 4.96 g/m*3 2.9 C 0 km/h
836 13-04-2019 21:35:00 2.8 C 4.93 g/m*3 2.8 C 0 km/h
837 13-04-2019 21:40:00 2.7 C 4.89 g/m*3 2.7 C 0 km/h
838 13-04-2019 21:45:00 2.6 C 4.86 g/m*3 2.6 C 0 km/h
839 13-04-2019 21:50:00 2.4 C 4.8 g/m*3 2.4 C 0 km/h
840 13-04-2019 21:55:00 2.2 C 4.79 g/m*3 2.2 C 0 km/h
841 13-04-2019 22:00:00 2.1 C 4.76 g/m*3 2.1 C 0 km/h
842 13-04-2019 22:05:00 1.9 C 4.75 g/m*3 1.9 C 0 km/h
843 13-04-2019 22:10:00 1.8 C 4.71 g/m*3 1.8 C 0 km/h
844 13-04-2019 22:15:00 1.7 C 4.74 g/m*3 1.7 C 0 km/h
845 13-04-2019 22:20:00 1.6 C 4.7 g/m*3 1.6 C 0 km/h
846 13-04-2019 22:25:00 1.5 C 4.67 g/m*3 1.5 C 0 km/h
847 13-04-2019 22:30:00 1.4 C 4.69 g/m*3 1.4 C 0 km/h
848 13-04-2019 22:35:00 1.4 C 4.75 g/m*3 1.4 C 0 km/h
849 13-04-2019 22:40:00 1.5 C 4.78 g/m*3 1.5 C 0 km/h
850 13-04-2019 22:45:00 1.4 C 4.75 g/m*3 1.4 C 0 km/h
Sensor: Nr:Datum:Temp:Abs-Feuchte:Windchill:Wind:
Aussen-T/F 851 13-04-2019 22:50:00 1.3 C 4.72 g/m*3 1.3 C 0 km/h
852 13-04-2019 22:55:00 1.2 C 4.63 g/m*3 1.2 C 0 km/h
853 13-04-2019 23:00:00 1.2 C 4.68 g/m*3 1.2 C 0 km/h
854 13-04-2019 23:05:00 1.2 C 4.68 g/m*3 1.2 C 0 km/h
855 13-04-2019 23:10:00 1.2 C 4.74 g/m*3 1.2 C 0 km/h
856 13-04-2019 23:15:00 1.2 C 4.74 g/m*3 1.2 C 0 km/h
857 13-04-2019 23:20:00 1.1 C 4.7 g/m*3 1.1 C 0 km/h
858 13-04-2019 23:25:00 1.1 C 4.7 g/m*3 1.1 C 0 km/h
859 13-04-2019 23:30:00 1.1 C 4.7 g/m*3 1.1 C 0 km/h
860 13-04-2019 23:35:00 1 C 4.67 g/m*3 1 C 0 km/h
861 13-04-2019 23:40:00 0.9 C 4.64 g/m*3 0.9 C 0 km/h
862 13-04-2019 23:45:00 0.9 C 4.64 g/m*3 0.9 C 0 km/h
863 13-04-2019 23:50:00 0.8 C 4.61 g/m*3 0.8 C 0 km/h
864 13-04-2019 23:55:00 0.8 C 4.61 g/m*3 0.8 C 0 km/h

Legende:
   Min
   Max


Maximal/Minimal-Werte vom 11.04.2019 - 13.04.2019

Sensor Min Max Avg
Temp
(Aussen-T/F)
0.8 °C
13-04-2019  23:50:00
13.6 °C
11-04-2019  17:45:00
5.27 °C
Abs-Feuchte
(Aussen-T/F)
3.51 g/m*3
12-04-2019  17:50:00
6.16 g/m*3
13-04-2019  18:05:00
4.39 g/m*3
Windchill
(Aussen-T/F)
0.05 C
13-04-2019  04:10:00
13.6 C
11-04-2019  17:45:00
4.34 C

Die Daten stammen von einer Davis Vantage Pro 2 Wetter-Station und werden unter Linux mit der Software wview2wettercgi und aufbereitet. Alle Angaben erfolgen ohne Gewähr für ihre Vollständigkeit oder Richtigkeit.
Kontakt: Rainer Krienke krienke@uni-koblenz.de . Meine Webseiten an der Uni Koblenz oder privat.
Version: $Revision: 0.78 $